Time;durP1;ratioP1;P1;durP2;ratioP2;P2;SDS_P1;SDS_P2;PMS_P1;PMS_P2;Temp;Humidity;BMP_temperature;BMP_pressure;BME280_temperature;BME280_humidity;BME280_pressure;Samples;Min_cycle;Max_cycle;Signal;HPM_P1;HPM_P2
2022/08/22 00:01:56;;;;;;;4.65;2.58;;;17.40;60.40;;;;;;5011365;28;20038;-60
2022/08/22 00:04:41;;;;;;;4.07;2.30;;;17.40;60.00;;;;;;5020917;28;20029;-62
2022/08/22 00:07:28;;;;;;;4.95;2.50;;;17.40;61.00;;;;;;5006436;28;20494;-62
2022/08/22 00:10:32;;;;;;;2.97;2.20;;;17.30;60.00;;;;;;5019504;28;20093;-61
2022/08/22 00:13:05;;;;;;;2.67;2.05;;;17.30;60.40;;;;;;5005288;28;20068;-61
2022/08/22 00:15:43;;;;;;;5.20;2.35;;;17.30;59.70;;;;;;5020209;28;20122;-60
2022/08/22 00:18:14;;;;;;;3.35;2.17;;;17.30;59.50;;;;;;5009939;28;20048;-60
2022/08/22 00:20:45;;;;;;;9.88;2.65;;;17.30;60.10;;;;;;5019236;28;20034;-61
2022/08/22 00:23:51;;;;;;;3.47;2.50;;;17.20;59.80;;;;;;5017209;28;20082;-61
2022/08/22 00:26:32;;;;;;;4.07;2.08;;;17.30;61.20;;;;;;5021823;28;20065;-60
2022/08/22 00:29:10;;;;;;;4.55;2.60;;;17.30;60.30;;;;;;5032907;28;20045;-62
2022/08/22 00:31:50;;;;;;;5.28;2.50;;;17.30;61.10;;;;;;5028044;28;20088;-61
2022/08/22 00:34:31;;;;;;;8.82;2.13;;;17.30;60.20;;;;;;5009128;28;20052;-61
2022/08/22 00:37:14;;;;;;;5.45;2.40;;;17.20;60.40;;;;;;5022676;28;20037;-62
2022/08/22 00:40:02;;;;;;;2.25;1.88;;;17.20;60.50;;;;;;5048245;28;20044;-60
2022/08/22 00:43:03;;;;;;;6.70;2.30;;;17.20;60.00;;;;;;5059724;28;20036;-60
2022/08/22 00:46:06;;;;;;;5.65;2.60;;;17.20;60.70;;;;;;5047300;28;20049;-60
2022/08/22 00:49:01;;;;;;;4.47;2.08;;;17.20;61.00;;;;;;5057383;28;20081;-59
2022/08/22 00:52:08;;;;;;;3.10;1.98;;;17.10;60.70;;;;;;5062605;28;20124;-60
2022/08/22 00:54:49;;;;;;;4.28;1.95;;;17.10;60.90;;;;;;5010481;28;20066;-62
2022/08/22 00:57:53;;;;;;;6.32;2.70;;;17.10;59.60;;;;;;5006572;28;20093;-59
2022/08/22 01:00:23;;;;;;;6.32;2.30;;;17.10;60.60;;;;;;4986887;28;20057;-60
2022/08/22 01:02:49;;;;;;;4.55;2.20;;;17.10;60.00;;;;;;5002700;28;20064;-60
2022/08/22 01:05:33;;;;;;;5.07;2.55;;;17.00;60.10;;;;;;5021921;28;20038;-61
2022/08/22 01:08:27;;;;;;;4.25;1.95;;;17.00;60.20;;;;;;5006019;28;20042;-59
2022/08/22 01:11:23;;;;;;;4.18;2.42;;;17.00;61.40;;;;;;5012723;28;20097;-62
2022/08/22 01:14:13;;;;;;;3.88;2.40;;;17.00;61.40;;;;;;5010124;28;20042;-61
2022/08/22 01:16:44;;;;;;;3.42;2.10;;;17.00;61.10;;;;;;5011056;28;20096;-60
2022/08/22 01:19:19;;;;;;;3.17;2.17;;;16.90;60.40;;;;;;5027631;28;20092;-61
2022/08/22 01:22:06;;;;;;;3.00;2.20;;;16.90;60.20;;;;;;5013741;28;20030;-60
2022/08/22 01:27:56;;;;;;;;;;;16.90;60.50;;;;;;5006677;28;20066;-60
2022/08/22 01:30:40;;;;;;;;;;;16.90;59.90;;;;;;5010745;28;19916;-60
2022/08/22 01:33:43;;;;;;;2.28;1.77;;;16.90;59.30;;;;;;5060230;28;19912;-60
2022/08/22 01:36:20;;;;;;;4.03;2.20;;;16.80;60.40;;;;;;5059619;28;20056;-60
2022/08/22 01:39:10;;;;;;;3.80;2.42;;;16.80;60.40;;;;;;5062119;28;20106;-60
2022/08/22 01:41:43;;;;;;;3.42;2.38;;;16.70;60.40;;;;;;5047856;28;20034;-60
2022/08/22 01:44:31;;;;;;;7.07;2.40;;;16.70;60.00;;;;;;5063653;28;20057;-60
2022/08/22 01:47:17;;;;;;;5.93;2.58;;;16.70;61.40;;;;;;5063571;28;20032;-61
2022/08/22 01:49:49;;;;;;;5.82;2.67;;;16.60;61.70;;;;;;5012261;28;20036;-61
2022/08/22 01:52:19;;;;;;;9.40;2.40;;;16.60;60.90;;;;;;5059674;28;20093;-60
2022/08/22 01:55:11;;;;;;;5.45;2.47;;;16.60;60.80;;;;;;5068269;28;20037;-60
2022/08/22 01:58:13;;;;;;;5.80;2.45;;;16.60;62.10;;;;;;5054734;28;20092;-60
2022/08/22 02:01:05;;;;;;;3.08;2.15;;;16.60;62.20;;;;;;5053264;28;20033;-59
2022/08/22 02:03:49;;;;;;;5.47;2.42;;;16.60;62.10;;;;;;5063599;28;20032;-60
2022/08/22 02:06:23;;;;;;;4.27;2.30;;;16.50;61.90;;;;;;5057727;28;20044;-60
2022/08/22 02:09:39;;;;;;;2.50;2.00;;;16.50;61.40;;;;;;5069051;28;20045;-62
2022/08/22 02:12:23;;;;;;;4.78;2.20;;;16.50;62.50;;;;;;5028175;28;20045;-59
2022/08/22 02:15:13;;;;;;;4.90;2.03;;;16.50;62.20;;;;;;5010003;28;20064;-62
2022/08/22 02:18:01;;;;;;;5.53;2.10;;;16.50;62.30;;;;;;5012688;28;20038;-60
2022/08/22 02:20:42;;;;;;;3.92;2.08;;;16.50;62.50;;;;;;5000248;28;20026;-60
2022/08/22 02:23:31;;;;;;;2.65;2.00;;;16.40;61.90;;;;;;5014401;28;20036;-61
2022/08/22 02:26:03;;;;;;;6.25;2.25;;;16.50;62.80;;;;;;5017077;28;20076;-61
2022/08/22 02:28:37;;;;;;;4.10;2.30;;;16.40;62.20;;;;;;5006303;28;20101;-62
2022/08/22 02:31:14;;;;;;;2.75;2.00;;;16.40;61.70;;;;;;5029693;28;20849;-61
2022/08/22 02:33:52;;;;;;;3.15;2.15;;;16.40;62.80;;;;;;5012873;28;20034;-61
2022/08/22 02:36:30;;;;;;;3.85;2.42;;;16.40;62.90;;;;;;5013466;28;20030;-60
2022/08/22 02:39:21;;;;;;;4.90;2.72;;;16.30;62.50;;;;;;5020086;28;20034;-59
2022/08/22 02:42:00;;;;;;;4.45;2.20;;;16.30;63.20;;;;;;5013641;28;20048;-61
2022/08/22 02:44:32;;;;;;;2.28;2.08;;;16.30;62.80;;;;;;5011342;28;20642;-60
2022/08/22 02:47:31;;;;;;;5.70;2.28;;;16.30;62.50;;;;;;5022494;28;20091;-61
2022/08/22 02:50:06;;;;;;;7.63;2.40;;;16.30;63.40;;;;;;5058598;28;20028;-61
2022/08/22 02:52:52;;;;;;;3.30;2.35;;;16.20;63.10;;;;;;5071885;28;20033;-60
2022/08/22 02:55:27;;;;;;;5.40;2.90;;;16.20;63.00;;;;;;5056726;28;20040;-59
2022/08/22 02:58:03;;;;;;;4.03;2.58;;;16.20;62.60;;;;;;5047579;28;20117;-61
2022/08/22 03:00:40;;;;;;;4.05;2.83;;;16.20;63.00;;;;;;5064049;28;20036;-59
2022/08/22 03:03:20;;;;;;;4.45;2.47;;;16.10;63.00;;;;;;5058823;28;20032;-62
2022/08/22 03:05:56;;;;;;;4.32;2.58;;;16.10;64.00;;;;;;5085192;28;20736;-59
2022/08/22 03:08:26;;;;;;;3.65;2.50;;;16.00;62.90;;;;;;5061650;28;20518;-62
2022/08/22 03:11:14;;;;;;;10.18;2.90;;;16.00;63.00;;;;;;5064275;28;20033;-59
2022/08/22 03:13:53;;;;;;;4.85;2.55;;;16.00;63.60;;;;;;5058522;28;20117;-62
2022/08/22 03:16:35;;;;;;;3.25;2.15;;;15.90;63.50;;;;;;5050822;28;20026;-59
2022/08/22 03:19:10;;;;;;;8.30;2.40;;;15.90;64.00;;;;;;5065585;28;20025;-60
2022/08/22 03:22:00;;;;;;;6.30;2.70;;;15.90;63.20;;;;;;5048205;28;20051;-60
2022/08/22 03:24:28;;;;;;;5.07;2.67;;;15.90;64.30;;;;;;5045760;28;20051;-59
2022/08/22 03:27:13;;;;;;;7.93;2.42;;;15.80;63.60;;;;;;5050308;28;20044;-59
2022/08/22 03:29:51;;;;;;;3.30;2.40;;;15.80;64.70;;;;;;5047160;28;20025;-60
2022/08/22 03:32:45;;;;;;;4.22;2.17;;;15.80;64.10;;;;;;5053404;28;20056;-61
2022/08/22 03:35:44;;;;;;;4.30;2.50;;;15.80;64.40;;;;;;5063497;28;20041;-63
2022/08/22 03:38:16;;;;;;;3.28;2.13;;;15.80;64.00;;;;;;5056781;28;20299;-59
2022/08/22 03:40:50;;;;;;;6.38;3.08;;;15.80;63.60;;;;;;5082200;28;20115;-59
2022/08/22 03:43:32;;;;;;;3.75;2.00;;;15.80;64.10;;;;;;5065416;28;20037;-60
2022/08/22 03:46:11;;;;;;;2.83;2.35;;;15.80;64.10;;;;;;5059962;28;20033;-60
2022/08/22 03:49:14;;;;;;;3.38;2.50;;;15.70;63.90;;;;;;5065777;28;20028;-63
2022/08/22 03:52:15;;;;;;;3.35;2.30;;;15.70;64.20;;;;;;5062446;28;20031;-62
2022/08/22 03:55:19;;;;;;;2.80;2.20;;;15.70;64.70;;;;;;5030117;28;20076;-61
2022/08/22 03:57:56;;;;;;;3.28;2.40;;;15.60;64.70;;;;;;4997950;28;20034;-61
2022/08/22 04:01:02;;;;;;;3.25;2.17;;;15.60;64.20;;;;;;5022214;28;20037;-59
2022/08/22 04:03:34;;;;;;;;;;;15.60;64.40;;;;;;5015599;28;20549;-60
2022/08/22 04:06:37;;;;;;;3.67;2.40;;;15.60;63.30;;;;;;5024693;28;19913;-61
2022/08/22 04:09:18;;;;;;;4.53;2.33;;;15.60;63.40;;;;;;5023433;28;20041;-59
2022/08/22 04:11:59;;;;;;;6.55;2.30;;;15.60;64.00;;;;;;5021483;28;20046;-60
2022/08/22 04:14:34;;;;;;;4.07;2.20;;;15.50;64.20;;;;;;5028152;28;20494;-60
2022/08/22 04:17:09;;;;;;;3.60;2.38;;;15.50;64.20;;;;;;5028977;28;20101;-61
2022/08/22 04:20:00;;;;;;;3.60;2.08;;;15.50;63.50;;;;;;5025743;28;20046;-60
2022/08/22 04:23:00;;;;;;;4.28;2.20;;;15.50;64.40;;;;;;5010115;28;20064;-60
2022/08/22 04:25:34;;;;;;;8.10;2.42;;;15.50;64.80;;;;;;4962347;28;20047;-59
2022/08/22 04:28:05;;;;;;;6.35;2.60;;;15.50;63.80;;;;;;4965650;28;20050;-60
2022/08/22 04:30:42;;;;;;;4.55;2.50;;;15.50;64.10;;;;;;4985720;28;20074;-61
2022/08/22 04:33:30;;;;;;;3.85;2.25;;;15.50;64.20;;;;;;4978819;28;20031;-59
2022/08/22 04:36:20;;;;;;;5.40;2.90;;;15.50;64.90;;;;;;4963470;28;20125;-60
2022/08/22 04:39:04;;;;;;;4.00;2.35;;;15.40;64.70;;;;;;4981352;28;20058;-60
2022/08/22 04:41:47;;;;;;;3.05;2.33;;;15.40;64.30;;;;;;4974935;28;20073;-59
2022/08/22 04:44:21;;;;;;;2.83;2.20;;;15.40;64.00;;;;;;5008162;28;20531;-60
2022/08/22 04:47:02;;;;;;;5.38;2.20;;;15.40;63.80;;;;;;4979227;28;20042;-61
2022/08/22 04:49:53;;;;;;;3.85;2.78;;;15.40;64.40;;;;;;5021199;28;20064;-61
2022/08/22 04:52:35;;;;;;;2.78;2.30;;;15.40;64.90;;;;;;5000430;28;20027;-61
2022/08/22 04:55:10;;;;;;;3.63;2.40;;;15.40;64.60;;;;;;4982402;28;20054;-61
2022/08/22 04:57:43;;;;;;;3.42;2.40;;;15.40;64.90;;;;;;5016274;28;20038;-60
2022/08/22 05:00:10;;;;;;;6.37;2.50;;;15.40;64.40;;;;;;4990854;28;20069;-60
2022/08/22 05:02:39;;;;;;;6.13;2.38;;;15.40;64.50;;;;;;5062854;28;20051;-60
2022/08/22 05:05:11;;;;;;;2.92;2.40;;;15.40;64.70;;;;;;5061317;28;20495;-61
2022/08/22 05:07:43;;;;;;;3.38;2.42;;;15.40;65.10;;;;;;5059904;28;20518;-59
2022/08/22 05:10:25;;;;;;;9.50;2.47;;;15.40;65.10;;;;;;5045178;28;20045;-59
2022/08/22 05:12:59;;;;;;;6.15;2.67;;;15.50;65.80;;;;;;5062172;28;20047;-61
2022/08/22 05:15:42;;;;;;;7.00;2.60;;;15.50;65.40;;;;;;5046548;28;20051;-60
2022/08/22 05:18:41;;;;;;;3.25;2.47;;;15.60;65.80;;;;;;5053402;28;20036;-61
2022/08/22 05:21:10;;;;;;;7.25;2.33;;;15.60;65.70;;;;;;5042804;28;20073;-60
2022/08/22 05:23:56;;;;;;;5.22;2.35;;;15.70;65.00;;;;;;5048598;28;20029;-60
2022/08/22 05:26:23;;;;;;;4.05;2.60;;;15.80;65.40;;;;;;5050224;28;20025;-60
2022/08/22 05:29:00;;;;;;;2.80;2.30;;;15.90;65.00;;;;;;5056880;28;20052;-61
2022/08/22 05:31:33;;;;;;;5.50;2.25;;;15.90;65.30;;;;;;5065684;28;20075;-59
2022/08/22 05:34:15;;;;;;;5.75;2.70;;;16.00;65.20;;;;;;5054295;28;20044;-60
2022/08/22 05:36:47;;;;;;;4.53;2.67;;;16.10;65.60;;;;;;5043353;28;20029;-60
2022/08/22 05:39:24;;;;;;;6.05;2.58;;;16.20;65.20;;;;;;5060704;28;20560;-60
2022/08/22 05:41:53;;;;;;;5.45;2.50;;;16.30;65.60;;;;;;5059982;28;20045;-59
2022/08/22 05:44:30;;;;;;;4.00;2.30;;;16.40;65.30;;;;;;5063532;28;20088;-59
2022/08/22 05:47:19;;;;;;;4.30;2.28;;;16.50;65.40;;;;;;5051181;28;20096;-60
2022/08/22 05:50:01;;;;;;;4.85;2.58;;;16.70;65.50;;;;;;5070149;28;20032;-60
2022/08/22 05:52:42;;;;;;;3.72;2.67;;;16.80;65.30;;;;;;5053366;28;20023;-61
2022/08/22 05:55:08;;;;;;;3.05;2.45;;;16.90;65.10;;;;;;5053478;28;20038;-60
2022/08/22 05:57:40;;;;;;;3.67;2.70;;;17.00;64.40;;;;;;5066147;28;20127;-61
2022/08/22 06:00:13;;;;;;;4.05;2.53;;;17.10;64.50;;;;;;5055487;28;20080;-60
2022/08/22 06:03:15;;;;;;;2.85;2.38;;;17.30;64.50;;;;;;5063768;28;20029;-59
2022/08/22 06:05:45;;;;;;;4.28;2.83;;;17.40;64.70;;;;;;5052577;28;20025;-58
2022/08/22 06:08:22;;;;;;;3.85;2.75;;;17.50;63.90;;;;;;5059106;28;20039;-59
2022/08/22 06:10:54;;;;;;;4.90;2.75;;;17.60;64.00;;;;;;5048552;28;20034;-59
2022/08/22 06:13:37;;;;;;;4.72;2.78;;;17.70;64.70;;;;;;5056196;28;20033;-60
2022/08/22 06:16:39;;;;;;;4.07;2.67;;;17.80;64.00;;;;;;5073479;28;20037;-60
2022/08/22 06:19:06;;;;;;;4.30;2.63;;;17.90;63.90;;;;;;5054706;28;20039;-59
2022/08/22 06:21:36;;;;;;;4.15;2.60;;;18.00;63.40;;;;;;5066367;28;20033;-59
2022/08/22 06:24:06;;;;;;;7.15;2.80;;;18.10;63.30;;;;;;5055766;28;20086;-59
2022/08/22 06:26:38;;;;;;;7.15;3.20;;;18.30;63.40;;;;;;5053677;28;20407;-61
2022/08/22 06:29:07;;;;;;;7.43;3.33;;;18.40;63.40;;;;;;5062358;28;20025;-60
2022/08/22 06:31:48;;;;;;;6.85;3.35;;;18.50;63.20;;;;;;5070670;28;20068;-60
2022/08/22 06:34:24;;;;;;;10.13;3.95;;;18.70;63.30;;;;;;5064812;28;20080;-60
2022/08/22 06:36:51;;;;;;;13.60;3.50;;;18.90;62.90;;;;;;5055428;28;20039;-61
2022/08/22 06:39:32;;;;;;;7.53;3.30;;;19.00;62.70;;;;;;5085086;28;20021;-60
2022/08/22 06:42:21;;;;;;;8.82;3.22;;;19.20;63.00;;;;;;5065872;28;20139;-60
2022/08/22 06:44:50;;;;;;;5.15;3.55;;;19.30;62.50;;;;;;5086294;28;20032;-60
2022/08/22 06:47:23;;;;;;;16.95;4.07;;;19.50;62.40;;;;;;5068505;28;20070;-61
2022/08/22 06:49:54;;;;;;;5.13;3.20;;;19.70;62.20;;;;;;5059313;28;20037;-61
2022/08/22 06:52:23;;;;;;;6.57;3.60;;;19.90;62.00;;;;;;5052208;28;20043;-62
2022/08/22 06:54:56;;;;;;;5.40;3.53;;;20.00;61.80;;;;;;5079329;28;20132;-61
2022/08/22 06:57:42;;;;;;;8.35;3.92;;;20.20;61.70;;;;;;5048685;28;20090;-60
2022/08/22 07:00:13;;;;;;;6.85;3.72;;;20.40;61.50;;;;;;5083150;28;20032;-60
2022/08/22 07:02:45;;;;;;;9.43;3.85;;;20.50;61.60;;;;;;5066112;28;20084;-62
2022/08/22 07:05:24;;;;;;;8.65;3.97;;;20.70;61.60;;;;;;5085785;28;20060;-60
2022/08/22 07:07:50;;;;;;;5.65;3.72;;;20.80;61.40;;;;;;5064431;28;20032;-61
2022/08/22 07:10:16;;;;;;;8.80;4.32;;;20.90;61.00;;;;;;5076207;28;20029;-60
2022/08/22 07:12:47;;;;;;;11.18;3.95;;;21.10;60.80;;;;;;5078071;28;20024;-60
2022/08/22 07:15:31;;;;;;;7.40;4.57;;;21.20;60.50;;;;;;5091680;28;20051;-60
2022/08/22 07:18:00;;;;;;;4.93;4.20;;;21.40;60.30;;;;;;5057207;28;20096;-59
2022/08/22 07:20:40;;;;;;;5.57;3.92;;;21.50;59.90;;;;;;5069979;28;20037;-60
2022/08/22 07:23:11;;;;;;;6.22;4.25;;;21.60;59.70;;;;;;5053602;28;20107;-60
2022/08/22 07:26:15;;;;;;;6.03;4.20;;;21.70;59.80;;;;;;5053544;28;20036;-60
2022/08/22 07:28:54;;;;;;;8.57;4.35;;;21.90;59.50;;;;;;5054817;28;20038;-59
2022/08/22 07:31:23;;;;;;;8.45;4.68;;;22.00;59.20;;;;;;5048413;28;20057;-59
2022/08/22 07:33:53;;;;;;;7.30;4.82;;;22.10;59.00;;;;;;5063748;28;20033;-60
2022/08/22 07:36:30;;;;;;;7.93;4.85;;;22.20;59.00;;;;;;5082724;28;20746;-59
2022/08/22 07:39:24;;;;;;;6.65;4.72;;;22.40;59.40;;;;;;5057578;28;20042;-59
2022/08/22 07:41:59;;;;;;;6.95;4.82;;;22.50;59.40;;;;;;5055165;28;20041;-60
2022/08/22 07:44:34;;;;;;;7.95;4.40;;;22.70;59.40;;;;;;5052544;28;20214;-59
2022/08/22 07:47:11;;;;;;;11.27;5.60;;;22.80;59.20;;;;;;5044892;28;20089;-60
2022/08/22 07:49:51;;;;;;;8.25;5.30;;;22.90;59.00;;;;;;5050669;28;20091;-60
2022/08/22 07:52:18;;;;;;;6.68;4.68;;;23.00;58.90;;;;;;5045412;28;20112;-59
2022/08/22 07:54:52;;;;;;;5.43;4.15;;;23.20;58.80;;;;;;5059416;28;20695;-61
2022/08/22 07:57:38;;;;;;;4.72;3.75;;;23.30;58.30;;;;;;5065291;28;20055;-60
2022/08/22 08:00:17;;;;;;;8.13;4.45;;;23.40;58.40;;;;;;5045419;28;20108;-60
2022/08/22 08:02:52;;;;;;;4.78;4.18;;;23.50;58.30;;;;;;5066590;28;20115;-60
2022/08/22 08:05:20;;;;;;;6.43;4.72;;;23.70;58.20;;;;;;5054781;28;20045;-61
2022/08/22 08:07:46;;;;;;;6.75;3.85;;;23.80;58.00;;;;;;5081890;28;20032;-60
2022/08/22 08:10:17;;;;;;;5.78;4.20;;;23.90;57.80;;;;;;5063723;28;20029;-61
2022/08/22 08:12:50;;;;;;;5.63;4.10;;;24.00;57.70;;;;;;5052563;28;20044;-59
2022/08/22 08:15:21;;;;;;;6.63;3.75;;;24.10;57.00;;;;;;5044158;28;20061;-61
2022/08/22 08:17:53;;;;;;;6.05;4.03;;;24.20;57.20;;;;;;5074527;28;20027;-60
2022/08/22 08:20:21;;;;;;;7.40;4.47;;;24.30;56.80;;;;;;5084340;28;20028;-61
2022/08/22 08:22:48;;;;;;;6.53;3.90;;;24.40;56.30;;;;;;5061339;28;20040;-60
2022/08/22 08:25:20;;;;;;;8.32;3.97;;;24.50;56.50;;;;;;5076697;28;20028;-61
2022/08/22 08:30:43;;;;;;;5.93;3.50;;;24.60;56.00;;;;;;5050128;28;20513;-60
2022/08/22 08:33:17;;;;;;;7.63;3.88;;;24.80;56.10;;;;;;5051440;28;20121;-62
2022/08/22 08:36:05;;;;;;;5.03;3.27;;;24.90;55.60;;;;;;5047670;28;20047;-60
2022/08/22 08:38:38;;;;;;;4.85;3.33;;;25.00;55.60;;;;;;5052615;28;20059;-61
2022/08/22 08:41:36;;;;;;;6.28;3.50;;;25.20;55.00;;;;;;5061088;28;20357;-61
2022/08/22 08:44:25;;;;;;;6.55;3.10;;;25.30;54.10;;;;;;5059757;28;20036;-61
2022/08/22 08:46:51;;;;;;;7.57;3.10;;;25.50;54.10;;;;;;5061713;28;20032;-60
2022/08/22 08:49:40;;;;;;;3.47;2.53;;;25.60;54.20;;;;;;5047661;28;20033;-60
2022/08/22 08:52:43;;;;;;;3.78;2.53;;;25.70;52.80;;;;;;5064769;28;20038;-60
2022/08/22 08:55:46;;;;;;;5.40;2.90;;;25.80;52.70;;;;;;5058516;28;20037;-60
2022/08/22 08:58:42;;;;;;;3.90;3.03;;;25.90;53.00;;;;;;5062278;28;20056;-61
2022/08/22 09:01:19;;;;;;;7.05;2.90;;;26.00;52.50;;;;;;5038481;28;20037;-60
2022/08/22 09:04:03;;;;;;;7.68;2.90;;;26.20;50.70;;;;;;5061347;28;20089;-59
2022/08/22 09:06:48;;;;;;;8.43;2.75;;;26.20;50.30;;;;;;5042792;28;20025;-59
2022/08/22 09:09:35;;;;;;;4.72;2.58;;;26.30;50.50;;;;;;5052561;28;20057;-59
2022/08/22 09:12:06;;;;;;;6.85;2.58;;;26.40;50.60;;;;;;5048094;28;20041;-58
2022/08/22 09:14:50;;;;;;;7.20;2.35;;;26.40;50.40;;;;;;5055562;28;20056;-58
2022/08/22 09:17:28;;;;;;;;;;;26.50;50.70;;;;;;5049284;28;20624;-59
2022/08/22 09:20:19;;;;;;;4.07;1.95;;;26.60;51.50;;;;;;5056695;28;19912;-59
2022/08/22 09:23:16;;;;;;;6.28;2.00;;;26.80;49.00;;;;;;5060838;28;20029;-59
2022/08/22 09:26:03;;;;;;;4.57;2.03;;;26.80;47.70;;;;;;5064629;28;20043;-60
2022/08/22 09:29:00;;;;;;;4.85;2.05;;;26.90;48.70;;;;;;5077098;28;20100;-57
2022/08/22 09:31:45;;;;;;;3.78;2.10;;;27.00;47.20;;;;;;5041550;28;20563;-59
2022/08/22 09:34:34;;;;;;;4.28;2.10;;;27.10;47.80;;;;;;5053750;28;20037;-59
2022/08/22 09:37:39;;;;;;;4.03;1.95;;;27.20;47.60;;;;;;5063067;28;20043;-60
2022/08/22 09:40:27;;;;;;;3.58;1.83;;;27.30;46.50;;;;;;5058309;28;20045;-60
2022/08/22 09:43:05;;;;;;;3.80;2.25;;;27.40;46.60;;;;;;5060000;28;20029;-60
2022/08/22 09:45:44;;;;;;;6.35;1.98;;;27.40;46.10;;;;;;5067145;28;20025;-60
2022/08/22 09:48:42;;;;;;;5.53;2.20;;;27.50;45.90;;;;;;5082718;28;20555;-59
2022/08/22 09:51:33;;;;;;;3.13;1.88;;;27.50;45.90;;;;;;5071657;28;20080;-60
2022/08/22 09:54:10;;;;;;;5.03;2.05;;;27.60;45.90;;;;;;5069793;28;20702;-60
2022/08/22 09:56:53;;;;;;;3.92;1.90;;;27.70;45.60;;;;;;5062287;28;20088;-58
2022/08/22 09:59:44;;;;;;;4.27;1.83;;;27.70;45.50;;;;;;5047642;28;20034;-59
2022/08/22 10:02:35;;;;;;;3.15;1.80;;;27.80;43.80;;;;;;5079278;28;20044;-60
2022/08/22 10:05:16;;;;;;;3.40;1.55;;;27.80;44.10;;;;;;5050937;28;20175;-60
2022/08/22 10:07:47;;;;;;;5.05;2.10;;;27.90;44.60;;;;;;5060801;28;20037;-59
2022/08/22 10:10:41;;;;;;;4.90;1.70;;;27.90;43.80;;;;;;5076993;28;20049;-59
2022/08/22 10:13:54;;;;;;;3.05;1.48;;;28.00;41.80;;;;;;5059440;28;20037;-60
2022/08/22 10:16:26;;;;;;;2.92;1.80;;;28.00;42.90;;;;;;5046173;28;20043;-61
2022/08/22 10:19:12;;;;;;;3.30;1.67;;;28.10;42.80;;;;;;5071740;28;20032;-60
2022/08/22 10:22:02;;;;;;;3.45;1.63;;;28.10;42.80;;;;;;5056218;28;20037;-60
2022/08/22 10:24:50;;;;;;;2.80;1.50;;;28.20;43.70;;;;;;5065987;28;20570;-61
2022/08/22 10:27:32;;;;;;;6.07;1.70;;;28.20;43.50;;;;;;5046931;28;20026;-60
2022/08/22 10:30:00;;;;;;;2.97;1.52;;;28.30;43.40;;;;;;5051283;28;20029;-59
2022/08/22 10:32:37;;;;;;;4.70;1.83;;;28.40;43.40;;;;;;5069548;28;20041;-60
2022/08/22 10:35:13;;;;;;;4.25;1.88;;;28.50;42.20;;;;;;5065275;28;20033;-60
2022/08/22 10:37:57;;;;;;;3.53;1.73;;;28.60;42.30;;;;;;5061489;28;20081;-60
2022/08/22 10:40:35;;;;;;;3.58;1.80;;;28.60;41.30;;;;;;5068019;28;20478;-61
2022/08/22 10:43:26;;;;;;;3.63;2.08;;;28.70;41.60;;;;;;5056180;28;20863;-59
2022/08/22 10:46:06;;;;;;;5.18;1.85;;;28.80;42.00;;;;;;5054814;28;20048;-61
2022/08/22 10:48:46;;;;;;;8.25;1.98;;;28.80;41.70;;;;;;5045961;28;20033;-60
2022/08/22 10:51:35;;;;;;;7.35;1.90;;;28.90;41.80;;;;;;5061282;28;20033;-60
2022/08/22 10:54:27;;;;;;;2.90;1.55;;;28.90;40.60;;;;;;5078193;28;20079;-61
2022/08/22 10:57:17;;;;;;;8.05;1.95;;;29.00;41.70;;;;;;5067662;28;20033;-60
2022/08/22 10:59:48;;;;;;;3.85;1.85;;;29.00;40.30;;;;;;5056142;28;20022;-61
2022/08/22 11:02:23;;;;;;;4.80;2.05;;;29.00;41.50;;;;;;5064884;28;20083;-59
2022/08/22 11:05:06;;;;;;;3.33;1.80;;;29.00;40.30;;;;;;5056103;28;20085;-60
2022/08/22 11:08:09;;;;;;;4.30;1.93;;;29.00;40.30;;;;;;5045792;28;20057;-60
2022/08/22 11:10:57;;;;;;;3.70;1.40;;;29.10;41.20;;;;;;5082815;28;20029;-60
2022/08/22 11:13:41;;;;;;;4.57;1.63;;;29.10;42.00;;;;;;5061670;28;20546;-60
2022/08/22 11:16:37;;;;;;;3.05;1.80;;;29.10;40.90;;;;;;5067062;28;20049;-60
2022/08/22 11:19:30;;;;;;;5.95;1.38;;;29.20;40.40;;;;;;5063154;28;20032;-60
2022/08/22 11:22:30;;;;;;;3.50;1.60;;;29.30;41.00;;;;;;5061241;28;20029;-60
2022/08/22 11:25:27;;;;;;;5.72;1.60;;;29.40;39.10;;;;;;5074721;28;20526;-60
2022/08/22 11:28:14;;;;;;;3.88;1.75;;;29.40;40.90;;;;;;5044875;28;20777;-61
2022/08/22 11:30:56;;;;;;;2.70;1.50;;;29.50;40.30;;;;;;5066649;28;20058;-60
2022/08/22 11:33:24;;;;;;;5.63;1.85;;;29.60;40.70;;;;;;5045194;28;20025;-59
2022/08/22 11:36:30;;;;;;;3.67;1.70;;;29.60;39.30;;;;;;5067240;28;20879;-60
2022/08/22 11:39:23;;;;;;;4.15;1.77;;;29.70;39.50;;;;;;5050039;28;20041;-60
2022/08/22 11:42:04;;;;;;;10.20;1.75;;;29.80;40.00;;;;;;5056820;28;20063;-61
2022/08/22 11:44:42;;;;;;;6.43;1.73;;;30.00;39.30;;;;;;5045941;28;20037;-60
2022/08/22 11:47:12;;;;;;;4.68;1.80;;;30.20;39.10;;;;;;5045889;28;20026;-61
2022/08/22 11:49:54;;;;;;;3.58;1.73;;;30.30;38.70;;;;;;5060856;28;20031;-61
2022/08/22 11:53:18;;;;;;;2.95;1.45;;;30.30;37.50;;;;;;4988705;28;20053;-60
2022/08/22 11:56:16;;;;;;;4.22;1.40;;;30.40;36.50;;;;;;5009814;28;20185;-60
2022/08/22 11:58:58;;;;;;;4.13;1.63;;;30.60;38.40;;;;;;4972281;28;20816;-61
2022/08/22 12:01:41;;;;;;;5.65;1.50;;;30.70;38.50;;;;;;4958095;29;20043;-61
2022/08/22 12:04:31;;;;;;;2.75;1.48;;;30.70;38.10;;;;;;4955853;28;20659;-60
2022/08/22 12:07:17;;;;;;;2.63;1.50;;;30.80;38.80;;;;;;4977875;28;20039;-61
2022/08/22 12:10:03;;;;;;;4.97;1.48;;;30.90;38.00;;;;;;4945169;29;20047;-61
2022/08/22 12:12:49;;;;;;;6.82;1.38;;;31.00;37.00;;;;;;4962031;28;20563;-62
2022/08/22 12:15:29;;;;;;;6.22;1.80;;;30.90;36.60;;;;;;4959997;28;20177;-60
2022/08/22 12:18:14;;;;;;;2.60;1.30;;;30.80;35.90;;;;;;4959550;28;20073;-61
2022/08/22 12:20:43;;;;;;;2.70;1.17;;;30.70;36.30;;;;;;4961483;28;21998;-61
2022/08/22 12:23:27;;;;;;;3.28;1.50;;;30.50;36.50;;;;;;4980560;28;20046;-61
2022/08/22 12:26:02;;;;;;;4.00;1.45;;;30.30;36.00;;;;;;4962059;28;20410;-61
2022/08/22 12:28:38;;;;;;;4.15;2.00;;;30.10;35.50;;;;;;4986037;28;20915;-60
2022/08/22 12:31:14;;;;;;;2.63;1.38;;;30.00;35.20;;;;;;4964220;28;20055;-62
2022/08/22 12:34:08;;;;;;;6.30;1.67;;;29.90;36.90;;;;;;4963105;28;20876;-61
2022/08/22 12:37:01;;;;;;;2.72;1.50;;;30.00;36.70;;;;;;5049990;28;20045;-61
2022/08/22 12:39:33;;;;;;;10.15;1.52;;;30.00;35.60;;;;;;5044580;28;20566;-60
2022/08/22 12:42:13;;;;;;;4.25;1.30;;;30.10;35.90;;;;;;5053659;28;20029;-61
2022/08/22 12:45:13;;;;;;;2.05;1.20;;;30.30;35.30;;;;;;5072081;28;20039;-59
2022/08/22 12:48:09;;;;;;;4.00;1.77;;;30.40;36.70;;;;;;5045183;28;20045;-60
2022/08/22 12:50:49;;;;;;;5.50;2.45;;;30.50;36.00;;;;;;5061168;28;20062;-61
2022/08/22 12:53:41;;;;;;;8.18;1.80;;;30.40;36.40;;;;;;5077180;28;20427;-61
2022/08/22 12:56:43;;;;;;;4.03;1.95;;;30.30;35.30;;;;;;5050084;28;20502;-60
2022/08/22 12:59:32;;;;;;;2.97;1.45;;;30.20;36.00;;;;;;5050881;28;20056;-61
2022/08/22 13:02:25;;;;;;;3.13;1.52;;;30.00;36.00;;;;;;5065543;28;20034;-60
2022/08/22 13:05:24;;;;;;;2.78;1.15;;;29.90;36.70;;;;;;5056233;28;20077;-60
2022/08/22 13:08:02;;;;;;;2.47;1.48;;;29.90;36.20;;;;;;5021746;28;20066;-60
2022/08/22 13:10:43;;;;;;;6.32;1.50;;;29.90;35.80;;;;;;5033627;28;20045;-59
2022/08/22 13:13:14;;;;;;;3.17;1.50;;;30.00;36.40;;;;;;5040272;28;20067;-61
2022/08/22 13:15:43;;;;;;;3.03;1.23;;;30.10;35.30;;;;;;5024000;28;20042;-60
2022/08/22 13:18:17;;;;;;;4.05;1.50;;;30.20;35.40;;;;;;5038712;28;20042;-60
2022/08/22 13:20:46;;;;;;;4.35;1.63;;;30.40;35.00;;;;;;5036215;28;20092;-61
2022/08/22 13:23:37;;;;;;;3.45;1.58;;;30.50;36.10;;;;;;5041506;28;20077;-60
2022/08/22 13:26:17;;;;;;;3.15;1.27;;;30.70;35.00;;;;;;5008314;28;20045;-60
2022/08/22 13:29:05;;;;;;;5.10;1.42;;;30.90;34.10;;;;;;5037396;28;20444;-61
2022/08/22 13:31:34;;;;;;;2.10;1.20;;;31.10;35.10;;;;;;5041997;28;20053;-59
2022/08/22 13:34:32;;;;;;;2.53;1.27;;;31.30;34.50;;;;;;5064099;28;20550;-61
2022/08/22 13:37:01;;;;;;;3.92;2.15;;;31.50;32.60;;;;;;5025739;28;20465;-60
2022/08/22 13:39:39;;;;;;;1.60;1.15;;;31.70;33.30;;;;;;5048875;28;20091;-60
2022/08/22 13:42:07;;;;;;;4.57;1.38;;;31.80;32.00;;;;;;5040930;28;20041;-62
2022/08/22 13:44:42;;;;;;;3.53;1.42;;;31.70;32.40;;;;;;5071269;28;20139;-60
2022/08/22 13:47:13;;;;;;;3.38;1.20;;;31.70;31.80;;;;;;5061385;28;20025;-60
2022/08/22 13:49:45;;;;;;;3.97;1.55;;;31.50;32.90;;;;;;5063938;28;20028;-61
2022/08/22 13:52:11;;;;;;;1.88;1.05;;;31.40;31.50;;;;;;5014486;28;20029;-62
2022/08/22 13:54:54;;;;;;;2.78;1.20;;;31.40;34.40;;;;;;5054011;28;20088;-61
2022/08/22 13:57:25;;;;;;;1.67;1.27;;;31.50;33.20;;;;;;5069699;28;20085;-61
2022/08/22 14:00:45;;;;;;;2.08;1.08;;;31.60;33.50;;;;;;5054794;28;20040;-60
2022/08/22 14:03:20;;;;;;;2.78;1.30;;;31.70;33.90;;;;;;5065864;28;20037;-59
2022/08/22 14:05:51;;;;;;;3.47;1.20;;;31.90;33.50;;;;;;5050669;28;20104;-61
2022/08/22 14:08:28;;;;;;;2.15;1.10;;;32.10;32.90;;;;;;5057157;28;20037;-61
2022/08/22 14:11:17;;;;;;;2.78;1.15;;;32.30;32.30;;;;;;5054962;28;20825;-60